sensor_id;sensor_type;location;lat;lon;timestamp;temperature;humidity
45549;DHT22;31270;48.328;10.096;2023-06-22T00:00:58;19.50;99.90
45549;DHT22;31270;48.328;10.096;2023-06-22T00:03:24;19.60;99.90
45549;DHT22;31270;48.328;10.096;2023-06-22T00:05:50;19.60;99.90
45549;DHT22;31270;48.328;10.096;2023-06-22T00:08:17;19.60;99.90
45549;DHT22;31270;48.328;10.096;2023-06-22T00:10:43;19.50;99.90
45549;DHT22;31270;48.328;10.096;2023-06-22T00:13:09;19.50;99.90
45549;DHT22;31270;48.328;10.096;2023-06-22T00:15:36;19.60;99.90
45549;DHT22;31270;48.328;10.096;2023-06-22T00:18:03;19.50;99.90
45549;DHT22;31270;48.328;10.096;2023-06-22T00:20:28;19.50;99.90
45549;DHT22;31270;48.328;10.096;2023-06-22T00:22:55;19.50;99.90
45549;DHT22;31270;48.328;10.096;2023-06-22T00:25:20;19.50;99.90
45549;DHT22;31270;48.328;10.096;2023-06-22T00:27:47;19.50;99.90
45549;DHT22;31270;48.328;10.096;2023-06-22T00:30:12;19.40;99.90
45549;DHT22;31270;48.328;10.096;2023-06-22T00:32:38;19.40;99.90
45549;DHT22;31270;48.328;10.096;2023-06-22T00:35:04;19.40;99.90
45549;DHT22;31270;48.328;10.096;2023-06-22T00:37:30;19.30;99.90
45549;DHT22;31270;48.328;10.096;2023-06-22T00:39:56;19.30;99.90
45549;DHT22;31270;48.328;10.096;2023-06-22T00:42:22;19.20;99.90
45549;DHT22;31270;48.328;10.096;2023-06-22T00:44:47;19.20;99.90
45549;DHT22;31270;48.328;10.096;2023-06-22T00:47:15;19.10;99.90
45549;DHT22;31270;48.328;10.096;2023-06-22T00:49:42;19.00;99.90
45549;DHT22;31270;48.328;10.096;2023-06-22T00:52:08;18.90;99.90
45549;DHT22;31270;48.328;10.096;2023-06-22T00:54:42;18.90;99.90
45549;DHT22;31270;48.328;10.096;2023-06-22T00:57:13;18.80;99.90
45549;DHT22;31270;48.328;10.096;2023-06-22T00:59:48;18.80;99.90
45549;DHT22;31270;48.328;10.096;2023-06-22T01:02:14;18.70;99.90
45549;DHT22;31270;48.328;10.096;2023-06-22T01:04:40;18.50;99.90
45549;DHT22;31270;48.328;10.096;2023-06-22T01:12:18;18.40;99.90
45549;DHT22;31270;48.328;10.096;2023-06-22T01:14:52;18.50;99.90
45549;DHT22;31270;48.328;10.096;2023-06-22T01:17:20;18.40;99.90
45549;DHT22;31270;48.328;10.096;2023-06-22T01:19:50;18.40;99.90
45549;DHT22;31270;48.328;10.096;2023-06-22T01:22:28;18.30;99.90
45549;DHT22;31270;48.328;10.096;2023-06-22T01:25:07;18.30;99.90
45549;DHT22;31270;48.328;10.096;2023-06-22T01:27:56;18.30;99.90
45549;DHT22;31270;48.328;10.096;2023-06-22T01:30:27;18.30;99.90
45549;DHT22;31270;48.328;10.096;2023-06-22T01:32:56;18.30;99.90
45549;DHT22;31270;48.328;10.096;2023-06-22T01:35:22;18.30;99.90
45549;DHT22;31270;48.328;10.096;2023-06-22T01:37:50;18.10;99.90
45549;DHT22;31270;48.328;10.096;2023-06-22T01:40:16;18.30;99.90
45549;DHT22;31270;48.328;10.096;2023-06-22T01:42:43;18.20;99.90
45549;DHT22;31270;48.328;10.096;2023-06-22T01:45:10;18.10;99.90
45549;DHT22;31270;48.328;10.096;2023-06-22T01:47:36;18.20;99.90
45549;DHT22;31270;48.328;10.096;2023-06-22T01:50:03;18.20;99.90
45549;DHT22;31270;48.328;10.096;2023-06-22T01:52:29;18.20;99.90
45549;DHT22;31270;48.328;10.096;2023-06-22T01:54:54;18.20;99.90
45549;DHT22;31270;48.328;10.096;2023-06-22T01:57:20;18.20;99.90
45549;DHT22;31270;48.328;10.096;2023-06-22T02:02:19;18.10;99.90
45549;DHT22;31270;48.328;10.096;2023-06-22T02:05:02;18.00;99.90
45549;DHT22;31270;48.328;10.096;2023-06-22T02:07:32;18.10;99.90
45549;DHT22;31270;48.328;10.096;2023-06-22T02:09:59;18.10;99.90
45549;DHT22;31270;48.328;10.096;2023-06-22T02:12:28;18.00;99.90
45549;DHT22;31270;48.328;10.096;2023-06-22T02:14:54;18.10;99.90
45549;DHT22;31270;48.328;10.096;2023-06-22T02:17:21;18.10;99.90
45549;DHT22;31270;48.328;10.096;2023-06-22T02:19:46;18.10;99.90
45549;DHT22;31270;48.328;10.096;2023-06-22T02:22:12;18.20;99.90
45549;DHT22;31270;48.328;10.096;2023-06-22T02:24:40;18.10;99.90
45549;DHT22;31270;48.328;10.096;2023-06-22T02:27:06;18.00;99.90
45549;DHT22;31270;48.328;10.096;2023-06-22T02:29:33;18.00;99.90
45549;DHT22;31270;48.328;10.096;2023-06-22T02:31:58;18.00;99.90
45549;DHT22;31270;48.328;10.096;2023-06-22T02:34:24;18.00;99.90
45549;DHT22;31270;48.328;10.096;2023-06-22T02:36:50;18.00;99.90
45549;DHT22;31270;48.328;10.096;2023-06-22T02:39:24;18.00;99.90
45549;DHT22;31270;48.328;10.096;2023-06-22T02:41:51;17.90;99.90
45549;DHT22;31270;48.328;10.096;2023-06-22T02:44:17;18.00;99.90
45549;DHT22;31270;48.328;10.096;2023-06-22T02:46:43;18.00;99.90
45549;DHT22;31270;48.328;10.096;2023-06-22T02:49:10;18.00;99.90
45549;DHT22;31270;48.328;10.096;2023-06-22T02:51:38;17.90;99.90
45549;DHT22;31270;48.328;10.096;2023-06-22T02:54:05;18.00;99.90
45549;DHT22;31270;48.328;10.096;2023-06-22T02:56:31;18.00;99.90
45549;DHT22;31270;48.328;10.096;2023-06-22T02:58:56;18.10;99.90
45549;DHT22;31270;48.328;10.096;2023-06-22T03:01:27;17.90;99.90
45549;DHT22;31270;48.328;10.096;2023-06-22T03:03:53;17.90;99.90
45549;DHT22;31270;48.328;10.096;2023-06-22T03:06:21;17.90;99.90
45549;DHT22;31270;48.328;10.096;2023-06-22T03:08:52;17.90;99.90
45549;DHT22;31270;48.328;10.096;2023-06-22T03:11:17;18.00;99.90
45549;DHT22;31270;48.328;10.096;2023-06-22T03:13:43;17.90;99.90
45549;DHT22;31270;48.328;10.096;2023-06-22T03:16:11;17.90;99.90
45549;DHT22;31270;48.328;10.096;2023-06-22T03:18:36;18.00;99.90
45549;DHT22;31270;48.328;10.096;2023-06-22T03:21:02;17.80;99.90
45549;DHT22;31270;48.328;10.096;2023-06-22T03:23:27;17.90;99.90
45549;DHT22;31270;48.328;10.096;2023-06-22T03:25:53;17.90;99.90
45549;DHT22;31270;48.328;10.096;2023-06-22T03:28:21;17.80;99.90
45549;DHT22;31270;48.328;10.096;2023-06-22T03:30:47;17.80;99.90
45549;DHT22;31270;48.328;10.096;2023-06-22T03:33:13;17.80;99.90
45549;DHT22;31270;48.328;10.096;2023-06-22T03:35:38;17.70;99.90
45549;DHT22;31270;48.328;10.096;2023-06-22T03:38:04;17.80;99.90
45549;DHT22;31270;48.328;10.096;2023-06-22T03:40:30;17.80;99.90
45549;DHT22;31270;48.328;10.096;2023-06-22T03:42:56;17.80;99.90
45549;DHT22;31270;48.328;10.096;2023-06-22T03:45:21;17.80;99.90
45549;DHT22;31270;48.328;10.096;2023-06-22T03:47:47;17.70;99.90
45549;DHT22;31270;48.328;10.096;2023-06-22T03:50:13;17.90;99.90
45549;DHT22;31270;48.328;10.096;2023-06-22T03:52:46;17.70;99.90
45549;DHT22;31270;48.328;10.096;2023-06-22T03:55:12;17.70;99.90
45549;DHT22;31270;48.328;10.096;2023-06-22T03:57:37;17.70;99.90
45549;DHT22;31270;48.328;10.096;2023-06-22T04:00:04;17.50;99.90
45549;DHT22;31270;48.328;10.096;2023-06-22T04:02:35;17.70;99.90
45549;DHT22;31270;48.328;10.096;2023-06-22T04:05:00;17.70;99.90
45549;DHT22;31270;48.328;10.096;2023-06-22T04:07:26;17.80;99.90
45549;DHT22;31270;48.328;10.096;2023-06-22T04:09:52;17.70;99.90
45549;DHT22;31270;48.328;10.096;2023-06-22T04:12:17;17.70;99.90
45549;DHT22;31270;48.328;10.096;2023-06-22T04:14:43;17.80;99.90
45549;DHT22;31270;48.328;10.096;2023-06-22T04:17:08;17.80;99.90
45549;DHT22;31270;48.328;10.096;2023-06-22T04:19:34;17.80;99.90
45549;DHT22;31270;48.328;10.096;2023-06-22T04:22:00;17.80;99.90
45549;DHT22;31270;48.328;10.096;2023-06-22T04:24:26;17.70;99.90
45549;DHT22;31270;48.328;10.096;2023-06-22T04:26:52;18.00;99.90
45549;DHT22;31270;48.328;10.096;2023-06-22T04:29:20;17.90;99.90
45549;DHT22;31270;48.328;10.096;2023-06-22T04:31:47;18.00;99.90
45549;DHT22;31270;48.328;10.096;2023-06-22T04:34:17;18.00;99.90
45549;DHT22;31270;48.328;10.096;2023-06-22T04:36:43;17.90;99.90
45549;DHT22;31270;48.328;10.096;2023-06-22T04:39:11;18.00;99.90
45549;DHT22;31270;48.328;10.096;2023-06-22T04:41:37;18.00;99.90
45549;DHT22;31270;48.328;10.096;2023-06-22T04:44:13;18.00;99.90
45549;DHT22;31270;48.328;10.096;2023-06-22T04:46:40;18.10;99.90
45549;DHT22;31270;48.328;10.096;2023-06-22T04:49:07;18.20;99.90
45549;DHT22;31270;48.328;10.096;2023-06-22T04:51:40;18.30;99.90
45549;DHT22;31270;48.328;10.096;2023-06-22T04:54:07;18.40;99.90
45549;DHT22;31270;48.328;10.096;2023-06-22T04:56:33;18.50;99.90
45549;DHT22;31270;48.328;10.096;2023-06-22T04:59:00;18.50;99.90
45549;DHT22;31270;48.328;10.096;2023-06-22T05:01:25;18.60;99.90
45549;DHT22;31270;48.328;10.096;2023-06-22T05:03:51;18.50;99.90
45549;DHT22;31270;48.328;10.096;2023-06-22T05:06:26;18.70;99.90
45549;DHT22;31270;48.328;10.096;2023-06-22T05:08:56;18.80;99.90
45549;DHT22;31270;48.328;10.096;2023-06-22T05:11:26;19.00;99.90
45549;DHT22;31270;48.328;10.096;2023-06-22T05:13:52;18.90;99.90
45549;DHT22;31270;48.328;10.096;2023-06-22T05:16:18;18.90;99.90
45549;DHT22;31270;48.328;10.096;2023-06-22T05:18:51;19.00;99.90
45549;DHT22;31270;48.328;10.096;2023-06-22T05:21:17;19.20;99.90
45549;DHT22;31270;48.328;10.096;2023-06-22T05:23:43;19.30;99.90
45549;DHT22;31270;48.328;10.096;2023-06-22T05:26:08;19.40;99.90
45549;DHT22;31270;48.328;10.096;2023-06-22T05:28:35;19.50;99.90
45549;DHT22;31270;48.328;10.096;2023-06-22T05:31:02;19.60;99.90
45549;DHT22;31270;48.328;10.096;2023-06-22T05:33:29;19.60;99.90
45549;DHT22;31270;48.328;10.096;2023-06-22T05:35:54;19.70;99.90
45549;DHT22;31270;48.328;10.096;2023-06-22T05:38:20;19.80;99.90
45549;DHT22;31270;48.328;10.096;2023-06-22T05:40:46;19.90;99.90
45549;DHT22;31270;48.328;10.096;2023-06-22T05:43:11;19.90;99.90
45549;DHT22;31270;48.328;10.096;2023-06-22T05:45:37;20.00;99.90
45549;DHT22;31270;48.328;10.096;2023-06-22T05:48:03;20.10;99.90
45549;DHT22;31270;48.328;10.096;2023-06-22T05:50:28;20.20;99.90
45549;DHT22;31270;48.328;10.096;2023-06-22T05:52:54;20.30;99.90
45549;DHT22;31270;48.328;10.096;2023-06-22T05:55:19;20.40;99.90
45549;DHT22;31270;48.328;10.096;2023-06-22T05:57:45;20.50;99.90
45549;DHT22;31270;48.328;10.096;2023-06-22T06:00:11;20.50;99.90
45549;DHT22;31270;48.328;10.096;2023-06-22T06:02:38;20.70;99.90
45549;DHT22;31270;48.328;10.096;2023-06-22T06:05:12;20.70;99.90
45549;DHT22;31270;48.328;10.096;2023-06-22T06:07:41;20.80;99.90
45549;DHT22;31270;48.328;10.096;2023-06-22T06:10:07;20.90;99.90
45549;DHT22;31270;48.328;10.096;2023-06-22T06:12:33;21.00;99.90
45549;DHT22;31270;48.328;10.096;2023-06-22T06:15:06;21.10;99.90
45549;DHT22;31270;48.328;10.096;2023-06-22T06:17:32;21.30;99.90
45549;DHT22;31270;48.328;10.096;2023-06-22T06:19:59;21.40;99.90
45549;DHT22;31270;48.328;10.096;2023-06-22T06:22:25;21.50;99.90
45549;DHT22;31270;48.328;10.096;2023-06-22T06:24:51;21.60;99.90
45549;DHT22;31270;48.328;10.096;2023-06-22T06:27:16;21.60;99.90
45549;DHT22;31270;48.328;10.096;2023-06-22T06:29:45;21.80;99.90
45549;DHT22;31270;48.328;10.096;2023-06-22T06:32:13;22.00;99.90
45549;DHT22;31270;48.328;10.096;2023-06-22T06:34:39;22.20;99.90
45549;DHT22;31270;48.328;10.096;2023-06-22T06:37:05;22.30;99.90
45549;DHT22;31270;48.328;10.096;2023-06-22T06:39:31;22.40;99.90
45549;DHT22;31270;48.328;10.096;2023-06-22T06:41:56;22.60;99.90
45549;DHT22;31270;48.328;10.096;2023-06-22T06:44:22;22.90;99.90
45549;DHT22;31270;48.328;10.096;2023-06-22T06:46:47;22.90;99.90
45549;DHT22;31270;48.328;10.096;2023-06-22T06:49:13;23.00;99.90
45549;DHT22;31270;48.328;10.096;2023-06-22T06:51:39;23.00;99.90
45549;DHT22;31270;48.328;10.096;2023-06-22T06:54:04;23.30;99.90
45549;DHT22;31270;48.328;10.096;2023-06-22T06:56:30;23.40;99.90
45549;DHT22;31270;48.328;10.096;2023-06-22T06:58:55;23.50;99.90
45549;DHT22;31270;48.328;10.096;2023-06-22T07:01:21;23.70;99.90
45549;DHT22;31270;48.328;10.096;2023-06-22T07:03:47;23.80;99.90
45549;DHT22;31270;48.328;10.096;2023-06-22T07:06:13;23.90;99.90
45549;DHT22;31270;48.328;10.096;2023-06-22T07:08:39;24.20;99.90
45549;DHT22;31270;48.328;10.096;2023-06-22T07:11:05;24.30;99.90
45549;DHT22;31270;48.328;10.096;2023-06-22T07:13:31;24.40;99.90
45549;DHT22;31270;48.328;10.096;2023-06-22T07:15:56;24.50;99.90
45549;DHT22;31270;48.328;10.096;2023-06-22T07:18:24;24.70;99.90
45549;DHT22;31270;48.328;10.096;2023-06-22T07:20:49;25.00;99.90
45549;DHT22;31270;48.328;10.096;2023-06-22T07:23:16;25.40;99.90
45549;DHT22;31270;48.328;10.096;2023-06-22T07:25:42;25.40;99.90
45549;DHT22;31270;48.328;10.096;2023-06-22T07:28:07;25.50;99.90
45549;DHT22;31270;48.328;10.096;2023-06-22T07:30:33;25.60;99.90
45549;DHT22;31270;48.328;10.096;2023-06-22T07:33:00;25.70;99.90
45549;DHT22;31270;48.328;10.096;2023-06-22T07:35:32;25.70;99.90
45549;DHT22;31270;48.328;10.096;2023-06-22T07:37:58;25.70;99.90
45549;DHT22;31270;48.328;10.096;2023-06-22T07:40:23;25.90;99.90
45549;DHT22;31270;48.328;10.096;2023-06-22T07:42:49;26.10;99.90
45549;DHT22;31270;48.328;10.096;2023-06-22T07:45:17;26.40;99.90
45549;DHT22;31270;48.328;10.096;2023-06-22T07:47:42;26.60;99.90
45549;DHT22;31270;48.328;10.096;2023-06-22T07:50:09;26.70;99.90
45549;DHT22;31270;48.328;10.096;2023-06-22T07:52:35;27.00;99.90
45549;DHT22;31270;48.328;10.096;2023-06-22T07:55:00;27.10;99.90
45549;DHT22;31270;48.328;10.096;2023-06-22T07:57:27;27.30;99.90
45549;DHT22;31270;48.328;10.096;2023-06-22T08:00:02;27.60;99.90
45549;DHT22;31270;48.328;10.096;2023-06-22T08:02:43;28.00;99.90
45549;DHT22;31270;48.328;10.096;2023-06-22T08:05:09;28.00;99.90
45549;DHT22;31270;48.328;10.096;2023-06-22T08:07:36;28.30;99.90
45549;DHT22;31270;48.328;10.096;2023-06-22T08:10:04;28.40;99.90
45549;DHT22;31270;48.328;10.096;2023-06-22T08:12:29;28.40;99.90
45549;DHT22;31270;48.328;10.096;2023-06-22T08:14:55;28.50;99.90
45549;DHT22;31270;48.328;10.096;2023-06-22T08:17:23;28.30;99.90
45549;DHT22;31270;48.328;10.096;2023-06-22T08:19:48;28.10;99.90
45549;DHT22;31270;48.328;10.096;2023-06-22T08:22:15;27.90;99.90
45549;DHT22;31270;48.328;10.096;2023-06-22T08:24:40;28.00;99.90
45549;DHT22;31270;48.328;10.096;2023-06-22T08:27:10;28.10;99.90
45549;DHT22;31270;48.328;10.096;2023-06-22T08:29:37;28.20;99.90
45549;DHT22;31270;48.328;10.096;2023-06-22T08:32:03;28.50;99.90
45549;DHT22;31270;48.328;10.096;2023-06-22T08:34:29;28.80;99.90
45549;DHT22;31270;48.328;10.096;2023-06-22T08:36:55;29.20;99.90
45549;DHT22;31270;48.328;10.096;2023-06-22T08:39:20;29.60;99.90
45549;DHT22;31270;48.328;10.096;2023-06-22T08:41:47;29.60;99.90
45549;DHT22;31270;48.328;10.096;2023-06-22T08:44:13;29.70;99.90
45549;DHT22;31270;48.328;10.096;2023-06-22T08:46:39;29.90;99.90
45549;DHT22;31270;48.328;10.096;2023-06-22T08:49:06;29.90;99.90
45549;DHT22;31270;48.328;10.096;2023-06-22T08:51:32;30.30;99.90
45549;DHT22;31270;48.328;10.096;2023-06-22T08:53:58;30.40;99.90
45549;DHT22;31270;48.328;10.096;2023-06-22T08:56:23;30.40;99.90
45549;DHT22;31270;48.328;10.096;2023-06-22T08:58:49;30.60;99.90
45549;DHT22;31270;48.328;10.096;2023-06-22T09:01:14;30.90;99.90
45549;DHT22;31270;48.328;10.096;2023-06-22T09:03:41;30.80;99.90
45549;DHT22;31270;48.328;10.096;2023-06-22T09:06:07;30.70;99.90
45549;DHT22;31270;48.328;10.096;2023-06-22T09:08:35;30.80;99.90
45549;DHT22;31270;48.328;10.096;2023-06-22T09:11:00;30.80;99.90
45549;DHT22;31270;48.328;10.096;2023-06-22T09:13:26;30.80;99.90
45549;DHT22;31270;48.328;10.096;2023-06-22T09:15:51;30.80;99.90
45549;DHT22;31270;48.328;10.096;2023-06-22T09:18:17;31.30;99.90
45549;DHT22;31270;48.328;10.096;2023-06-22T09:20:43;31.60;99.90
45549;DHT22;31270;48.328;10.096;2023-06-22T09:23:10;31.80;99.90
45549;DHT22;31270;48.328;10.096;2023-06-22T09:25:35;32.20;99.90
45549;DHT22;31270;48.328;10.096;2023-06-22T09:28:01;32.30;99.90
45549;DHT22;31270;48.328;10.096;2023-06-22T09:30:27;32.30;99.90
45549;DHT22;31270;48.328;10.096;2023-06-22T09:32:53;32.50;99.90
45549;DHT22;31270;48.328;10.096;2023-06-22T09:35:19;32.90;99.90
45549;DHT22;31270;48.328;10.096;2023-06-22T09:37:45;33.10;99.90
45549;DHT22;31270;48.328;10.096;2023-06-22T09:40:11;33.10;99.90
45549;DHT22;31270;48.328;10.096;2023-06-22T09:42:39;33.10;99.90
45549;DHT22;31270;48.328;10.096;2023-06-22T09:45:06;33.00;99.90
45549;DHT22;31270;48.328;10.096;2023-06-22T09:47:31;32.80;99.90
45549;DHT22;31270;48.328;10.096;2023-06-22T09:49:57;32.90;99.90
45549;DHT22;31270;48.328;10.096;2023-06-22T09:52:25;32.90;99.90
45549;DHT22;31270;48.328;10.096;2023-06-22T09:54:50;33.20;99.90
45549;DHT22;31270;48.328;10.096;2023-06-22T09:57:16;33.50;99.90
45549;DHT22;31270;48.328;10.096;2023-06-22T09:59:42;33.70;99.90
45549;DHT22;31270;48.328;10.096;2023-06-22T10:02:08;34.00;99.90
45549;DHT22;31270;48.328;10.096;2023-06-22T10:04:34;33.90;99.90
45549;DHT22;31270;48.328;10.096;2023-06-22T10:07:00;34.10;99.90
45549;DHT22;31270;48.328;10.096;2023-06-22T10:09:27;34.60;99.90
45549;DHT22;31270;48.328;10.096;2023-06-22T10:11:52;34.20;99.90
45549;DHT22;31270;48.328;10.096;2023-06-22T10:14:18;34.20;99.90
45549;DHT22;31270;48.328;10.096;2023-06-22T10:16:44;33.90;99.90
45549;DHT22;31270;48.328;10.096;2023-06-22T10:19:10;33.90;99.90
45549;DHT22;31270;48.328;10.096;2023-06-22T10:21:35;33.80;99.90
45549;DHT22;31270;48.328;10.096;2023-06-22T10:24:01;33.60;99.90
45549;DHT22;31270;48.328;10.096;2023-06-22T10:26:32;33.50;99.90
45549;DHT22;31270;48.328;10.096;2023-06-22T10:28:58;33.70;99.90
45549;DHT22;31270;48.328;10.096;2023-06-22T10:31:24;34.20;99.90
45549;DHT22;31270;48.328;10.096;2023-06-22T10:33:49;34.40;99.90
45549;DHT22;31270;48.328;10.096;2023-06-22T10:36:15;34.30;99.90
45549;DHT22;31270;48.328;10.096;2023-06-22T10:38:41;33.80;99.90
45549;DHT22;31270;48.328;10.096;2023-06-22T10:41:06;34.00;99.90
45549;DHT22;31270;48.328;10.096;2023-06-22T10:43:32;34.10;99.90
45549;DHT22;31270;48.328;10.096;2023-06-22T10:45:58;34.20;99.90
45549;DHT22;31270;48.328;10.096;2023-06-22T10:48:23;34.30;99.90
45549;DHT22;31270;48.328;10.096;2023-06-22T10:50:49;33.90;99.90
45549;DHT22;31270;48.328;10.096;2023-06-22T10:53:15;33.90;99.90
45549;DHT22;31270;48.328;10.096;2023-06-22T10:55:40;34.20;99.90
45549;DHT22;31270;48.328;10.096;2023-06-22T10:58:06;34.50;99.90
45549;DHT22;31270;48.328;10.096;2023-06-22T11:00:31;34.70;99.90
45549;DHT22;31270;48.328;10.096;2023-06-22T11:02:57;34.80;99.90
45549;DHT22;31270;48.328;10.096;2023-06-22T11:05:23;35.30;99.90
45549;DHT22;31270;48.328;10.096;2023-06-22T11:07:49;35.40;99.90
45549;DHT22;31270;48.328;10.096;2023-06-22T11:10:15;35.60;99.90
45549;DHT22;31270;48.328;10.096;2023-06-22T11:12:41;35.60;99.90
45549;DHT22;31270;48.328;10.096;2023-06-22T11:15:08;35.80;99.90
45549;DHT22;31270;48.328;10.096;2023-06-22T11:17:35;35.90;99.90
45549;DHT22;31270;48.328;10.096;2023-06-22T11:20:00;36.10;99.90
45549;DHT22;31270;48.328;10.096;2023-06-22T11:22:26;36.00;99.90
45549;DHT22;31270;48.328;10.096;2023-06-22T11:24:52;36.20;99.90
45549;DHT22;31270;48.328;10.096;2023-06-22T11:27:18;36.00;99.90
45549;DHT22;31270;48.328;10.096;2023-06-22T11:29:44;36.00;99.90
45549;DHT22;31270;48.328;10.096;2023-06-22T11:32:09;35.90;99.90
45549;DHT22;31270;48.328;10.096;2023-06-22T11:34:35;36.10;99.90
45549;DHT22;31270;48.328;10.096;2023-06-22T11:37:01;36.30;99.90
45549;DHT22;31270;48.328;10.096;2023-06-22T11:39:26;36.60;99.90
45549;DHT22;31270;48.328;10.096;2023-06-22T11:41:52;36.70;99.90
45549;DHT22;31270;48.328;10.096;2023-06-22T11:44:18;36.70;99.90
45549;DHT22;31270;48.328;10.096;2023-06-22T11:46:43;36.90;99.90
45549;DHT22;31270;48.328;10.096;2023-06-22T11:49:09;36.70;99.90
45549;DHT22;31270;48.328;10.096;2023-06-22T11:51:34;36.20;99.90
45549;DHT22;31270;48.328;10.096;2023-06-22T11:54:00;36.30;99.90
45549;DHT22;31270;48.328;10.096;2023-06-22T11:56:26;36.30;99.90
45549;DHT22;31270;48.328;10.096;2023-06-22T11:58:53;36.00;99.90
45549;DHT22;31270;48.328;10.096;2023-06-22T12:01:19;35.60;99.90
45549;DHT22;31270;48.328;10.096;2023-06-22T12:03:45;35.30;99.90
45549;DHT22;31270;48.328;10.096;2023-06-22T12:06:11;35.40;99.90
45549;DHT22;31270;48.328;10.096;2023-06-22T12:08:37;35.50;99.90
45549;DHT22;31270;48.328;10.096;2023-06-22T12:11:02;35.60;99.90
45549;DHT22;31270;48.328;10.096;2023-06-22T12:13:28;35.70;99.90
45549;DHT22;31270;48.328;10.096;2023-06-22T12:15:53;36.10;99.90
45549;DHT22;31270;48.328;10.096;2023-06-22T12:18:19;36.30;99.90
45549;DHT22;31270;48.328;10.096;2023-06-22T12:20:46;36.90;99.90
45549;DHT22;31270;48.328;10.096;2023-06-22T12:23:12;37.30;99.90
45549;DHT22;31270;48.328;10.096;2023-06-22T12:25:39;37.30;98.80
45549;DHT22;31270;48.328;10.096;2023-06-22T12:28:04;37.60;98.90
45549;DHT22;31270;48.328;10.096;2023-06-22T12:30:32;37.50;98.40
45549;DHT22;31270;48.328;10.096;2023-06-22T12:32:57;37.30;97.20
45549;DHT22;31270;48.328;10.096;2023-06-22T12:35:23;37.30;99.20
45549;DHT22;31270;48.328;10.096;2023-06-22T12:37:49;37.40;99.90
45549;DHT22;31270;48.328;10.096;2023-06-22T12:40:14;37.30;97.80
45549;DHT22;31270;48.328;10.096;2023-06-22T12:42:40;36.80;97.30
45549;DHT22;31270;48.328;10.096;2023-06-22T12:45:07;36.50;98.40
45549;DHT22;31270;48.328;10.096;2023-06-22T12:47:33;36.20;99.50
45549;DHT22;31270;48.328;10.096;2023-06-22T12:49:58;36.30;99.90
45549;DHT22;31270;48.328;10.096;2023-06-22T12:52:24;36.30;99.70
45549;DHT22;31270;48.328;10.096;2023-06-22T12:54:50;36.20;99.60
45549;DHT22;31270;48.328;10.096;2023-06-22T12:57:15;36.30;99.90
45549;DHT22;31270;48.328;10.096;2023-06-22T12:59:42;36.40;99.70
45549;DHT22;31270;48.328;10.096;2023-06-22T13:02:08;36.10;99.90
45549;DHT22;31270;48.328;10.096;2023-06-22T13:04:34;36.10;99.80
45549;DHT22;31270;48.328;10.096;2023-06-22T13:07:00;36.10;99.70
45549;DHT22;31270;48.328;10.096;2023-06-22T13:09:25;35.90;97.20
45549;DHT22;31270;48.328;10.096;2023-06-22T13:11:51;36.00;98.00
45549;DHT22;31270;48.328;10.096;2023-06-22T13:14:18;35.80;99.50
45549;DHT22;31270;48.328;10.096;2023-06-22T13:16:43;35.90;99.20
45549;DHT22;31270;48.328;10.096;2023-06-22T13:19:09;35.70;98.40
45549;DHT22;31270;48.328;10.096;2023-06-22T13:21:35;35.70;99.10
45549;DHT22;31270;48.328;10.096;2023-06-22T13:24:00;35.40;99.00
45549;DHT22;31270;48.328;10.096;2023-06-22T13:26:26;35.50;99.20
45549;DHT22;31270;48.328;10.096;2023-06-22T13:28:54;35.30;99.70
45549;DHT22;31270;48.328;10.096;2023-06-22T13:31:19;35.50;98.00
45549;DHT22;31270;48.328;10.096;2023-06-22T13:33:45;35.50;99.70
45549;DHT22;31270;48.328;10.096;2023-06-22T13:36:13;35.40;97.60
45549;DHT22;31270;48.328;10.096;2023-06-22T13:38:39;35.40;98.30
45549;DHT22;31270;48.328;10.096;2023-06-22T13:41:07;35.20;97.80
45549;DHT22;31270;48.328;10.096;2023-06-22T13:43:33;35.20;98.40
45549;DHT22;31270;48.328;10.096;2023-06-22T13:45:58;35.30;98.70
45549;DHT22;31270;48.328;10.096;2023-06-22T13:48:24;35.20;98.40
45549;DHT22;31270;48.328;10.096;2023-06-22T13:50:51;34.90;98.20
45549;DHT22;31270;48.328;10.096;2023-06-22T13:53:17;34.70;97.90
45549;DHT22;31270;48.328;10.096;2023-06-22T13:55:42;34.80;98.10
45549;DHT22;31270;48.328;10.096;2023-06-22T13:58:08;34.70;99.30
45549;DHT22;31270;48.328;10.096;2023-06-22T14:00:34;34.50;99.90
45549;DHT22;31270;48.328;10.096;2023-06-22T14:02:59;34.50;99.20
45549;DHT22;31270;48.328;10.096;2023-06-22T14:05:25;34.50;99.60
45549;DHT22;31270;48.328;10.096;2023-06-22T14:07:50;34.30;98.90
45549;DHT22;31270;48.328;10.096;2023-06-22T14:10:16;34.30;98.80
45549;DHT22;31270;48.328;10.096;2023-06-22T14:12:42;34.40;99.00
45549;DHT22;31270;48.328;10.096;2023-06-22T14:15:07;34.30;98.20
45549;DHT22;31270;48.328;10.096;2023-06-22T14:17:33;34.50;99.10
45549;DHT22;31270;48.328;10.096;2023-06-22T14:20:06;34.40;99.10
45549;DHT22;31270;48.328;10.096;2023-06-22T14:22:34;34.30;99.80
45549;DHT22;31270;48.328;10.096;2023-06-22T14:25:02;34.20;98.80
45549;DHT22;31270;48.328;10.096;2023-06-22T14:27:28;34.40;98.90
45549;DHT22;31270;48.328;10.096;2023-06-22T14:29:53;34.60;99.70
45549;DHT22;31270;48.328;10.096;2023-06-22T14:32:19;34.70;99.10
45549;DHT22;31270;48.328;10.096;2023-06-22T14:34:44;34.90;99.90
45549;DHT22;31270;48.328;10.096;2023-06-22T14:37:10;35.00;99.70
45549;DHT22;31270;48.328;10.096;2023-06-22T14:39:36;35.20;99.90
45549;DHT22;31270;48.328;10.096;2023-06-22T14:42:02;35.40;99.30
45549;DHT22;31270;48.328;10.096;2023-06-22T14:44:29;35.50;98.40
45549;DHT22;31270;48.328;10.096;2023-06-22T14:46:55;35.80;98.10
45549;DHT22;31270;48.328;10.096;2023-06-22T14:49:21;35.80;97.20
45549;DHT22;31270;48.328;10.096;2023-06-22T14:51:47;35.50;96.90
45549;DHT22;31270;48.328;10.096;2023-06-22T14:54:13;35.60;97.50
45549;DHT22;31270;48.328;10.096;2023-06-22T14:56:38;35.80;97.20
45549;DHT22;31270;48.328;10.096;2023-06-22T14:59:04;35.70;98.90
45549;DHT22;31270;48.328;10.096;2023-06-22T15:01:30;35.80;98.60
45549;DHT22;31270;48.328;10.096;2023-06-22T15:03:55;36.00;99.10
45549;DHT22;31270;48.328;10.096;2023-06-22T15:06:22;35.90;97.60
45549;DHT22;31270;48.328;10.096;2023-06-22T15:08:47;35.90;97.10
45549;DHT22;31270;48.328;10.096;2023-06-22T15:11:13;36.00;98.10
45549;DHT22;31270;48.328;10.096;2023-06-22T15:13:40;36.00;98.60
45549;DHT22;31270;48.328;10.096;2023-06-22T15:16:05;36.10;97.90
45549;DHT22;31270;48.328;10.096;2023-06-22T15:18:32;35.90;96.20